Time;durP1;ratioP1;P1;durP2;ratioP2;P2;SDS_P1;SDS_P2;PMS_P1;PMS_P2;Temp;Humidity;BMP_temperature;BMP_pressure;BME280_temperature;BME280_humidity;BME280_pressure;Samples;Min_cycle;Max_cycle;Signal;HPM_P1;HPM_P2
2021/10/28 00:12:20;;;;;;;95.72;54.00;;;;;;;3.25;100.00;100040.72;2052919;28;20232;-74
2021/10/28 00:13:24;;;;;;;110.07;57.67;;;;;;;3.20;100.00;100037.16;2055684;28;20668;-73
2021/10/28 00:14:26;;;;;;;103.60;57.50;;;;;;;3.14;100.00;100028.31;2053516;28;20636;-74
2021/10/28 00:15:30;;;;;;;101.65;57.75;;;;;;;3.10;100.00;100027.13;2053633;28;20234;-73
2021/10/28 00:16:35;;;;;;;108.22;59.95;;;;;;;3.07;100.00;100027.59;2053695;28;20225;-75
2021/10/28 00:17:45;;;;;;;114.35;64.20;;;;;;;3.05;100.00;100032.28;2062408;28;20305;-74
2021/10/28 00:18:50;;;;;;;135.68;71.05;;;;;;;3.01;100.00;100017.94;2085823;28;21215;-74
2021/10/28 00:19:51;;;;;;;139.57;72.45;;;;;;;3.07;100.00;100032.88;2087026;28;20219;-73
2021/10/28 00:20:54;;;;;;;138.63;74.43;;;;;;;3.07;100.00;100032.88;2080775;28;20596;-74
2021/10/28 00:21:58;;;;;;;160.68;83.68;;;;;;;3.10;100.00;100032.41;2072595;28;20232;-73
2021/10/28 00:23:02;;;;;;;163.77;87.05;;;;;;;3.15;100.00;100029.13;2080865;28;20219;-74
2021/10/28 00:24:08;;;;;;;162.50;86.05;;;;;;;3.21;100.00;100034.28;2081497;28;20310;-74
2021/10/28 00:25:11;;;;;;;111.40;62.88;;;;;;;3.26;100.00;100036.25;2081089;28;20227;-74
2021/10/28 00:26:17;;;;;;;104.57;59.83;;;;;;;3.21;100.00;100034.28;2081435;28;20789;-74
2021/10/28 00:27:22;;;;;;;107.30;60.47;;;;;;;3.16;100.00;100031.53;2079824;28;20219;-74
2021/10/28 00:28:25;;;;;;;152.43;78.28;;;;;;;3.12;100.00;100032.97;2063746;28;20590;-74
2021/10/28 00:29:28;;;;;;;155.55;84.68;;;;;;;3.15;100.00;100034.38;2072565;28;20714;-74
2021/10/28 00:30:32;;;;;;;159.40;83.00;;;;;;;3.19;100.00;100030.25;2073056;28;20220;-74
2021/10/28 00:31:37;;;;;;;164.07;85.20;;;;;;;3.22;100.00;100040.38;2073018;28;20637;-74
2021/10/28 00:32:43;;;;;;;158.88;85.95;;;;;;;3.25;100.00;100037.28;2078738;28;20338;-74
2021/10/28 00:33:46;;;;;;;165.57;83.45;;;;;;;3.29;100.00;100039.25;2080723;28;20251;-75
2021/10/28 00:34:49;;;;;;;168.18;85.50;;;;;;;3.28;100.00;100032.34;2079996;28;20579;-74
2021/10/28 00:35:50;;;;;;;140.48;76.13;;;;;;;3.26;100.00;100034.44;2080497;28;20720;-74
2021/10/28 00:36:52;;;;;;;166.10;84.55;;;;;;;3.28;100.00;100036.84;2081364;28;20251;-74
2021/10/28 00:37:57;;;;;;;110.15;61.78;;;;;;;3.25;100.00;100029.38;2081143;28;20285;-74
2021/10/28 00:39:04;;;;;;;133.00;71.15;;;;;;;3.20;100.00;100032.69;2081333;28;20235;-74
2021/10/28 00:40:10;;;;;;;105.60;60.40;;;;;;;3.16;100.00;100031.53;2080509;28;20215;-74
2021/10/28 00:41:14;;;;;;;110.85;62.78;;;;;;;3.09;100.00;100036.88;2080481;28;20225;-74
2021/10/28 00:42:18;;;;;;;110.15;62.28;;;;;;;3.08;100.00;100039.75;2081295;28;20728;-74
2021/10/28 00:43:21;;;;;;;157.05;76.60;;;;;;;3.04;100.00;100038.56;2081444;28;20219;-75
2021/10/28 00:44:28;;;;;;;131.75;71.03;;;;;;;3.03;100.00;100036.97;2079737;28;20286;-74
2021/10/28 00:45:33;;;;;;;115.30;61.72;;;;;;;3.00;100.00;100043.47;2080731;28;20224;-75
2021/10/28 00:46:46;;;;;;;104.22;59.03;;;;;;;2.96;100.00;100037.06;2081246;28;20227;-75
2021/10/28 00:47:50;;;;;;;118.20;62.63;;;;;;;2.94;100.00;100036.44;2081054;28;20742;-75
2021/10/28 00:49:00;;;;;;;110.60;62.65;;;;;;;2.92;100.00;100040.34;2080798;28;20227;-74
2021/10/28 00:50:04;;;;;;;112.35;64.60;;;;;;;2.87;100.00;100041.03;2079860;28;20848;-74
2021/10/28 00:51:06;;;;;;;126.20;67.47;;;;;;;2.85;100.00;100045.69;2080682;28;20277;-74
2021/10/28 00:52:12;;;;;;;117.65;63.90;;;;;;;2.81;100.00;100042.69;2081049;28;20631;-74
2021/10/28 00:53:18;;;;;;;111.10;61.33;;;;;;;2.77;100.00;100048.63;2080242;28;20235;-74
2021/10/28 00:54:23;;;;;;;110.65;60.15;;;;;;;2.74;100.00;100049.06;2080558;28;20306;-74
2021/10/28 00:55:31;;;;;;;117.05;62.63;;;;;;;2.70;100.00;100053.19;2080735;28;20281;-74
2021/10/28 00:56:33;;;;;;;117.63;64.25;;;;;;;2.65;100.00;100045.91;2081311;28;20227;-74
2021/10/28 00:57:38;;;;;;;120.55;62.95;;;;;;;2.65;100.00;100045.91;2081300;28;20223;-74
2021/10/28 00:58:41;;;;;;;124.80;67.90;;;;;;;2.60;100.00;100051.03;2079828;28;20670;-74
2021/10/28 00:59:49;;;;;;;120.35;61.47;;;;;;;2.61;100.00;100043.97;2080612;28;20302;-74
2021/10/28 01:00:56;;;;;;;109.15;60.03;;;;;;;2.57;100.00;100051.47;2079378;28;20250;-74
2021/10/28 01:02:01;;;;;;;115.82;61.38;;;;;;;2.53;100.00;100048.50;2080491;28;20223;-74
2021/10/28 01:03:05;;;;;;;112.32;60.90;;;;;;;2.54;100.00;100050.09;2081180;28;20228;-74
2021/10/28 01:04:14;;;;;;;113.75;63.35;;;;;;;2.52;100.00;100049.53;2079947;28;20297;-74
2021/10/28 01:05:17;;;;;;;124.60;63.05;;;;;;;2.52;100.00;100048.72;2072074;28;20307;-74
2021/10/28 01:06:25;;;;;;;117.18;62.75;;;;;;;2.50;100.00;100043.63;2072153;28;20231;-74
2021/10/28 01:07:29;;;;;;;124.00;66.32;;;;;;;2.48;100.00;100040.44;2071857;28;20239;-75
2021/10/28 01:08:37;;;;;;;125.18;66.00;;;;;;;2.49;100.00;100039.41;2072016;28;20226;-75
2021/10/28 01:09:44;;;;;;;127.13;65.47;;;;;;;2.49;100.00;100041.22;2072036;28;20259;-74
2021/10/28 01:10:51;;;;;;;122.88;65.57;;;;;;;2.47;100.00;100040.66;2072993;28;20220;-74
2021/10/28 01:11:53;;;;;;;122.50;67.07;;;;;;;2.49;100.00;100038.59;2072522;28;20667;-74
2021/10/28 01:12:57;;;;;;;132.05;68.50;;;;;;;2.47;100.00;100032.75;2072929;28;20236;-74
2021/10/28 01:14:02;;;;;;;139.07;72.68;;;;;;;2.47;100.00;100038.81;2073041;28;20714;-75
2021/10/28 01:15:14;;;;;;;135.07;71.72;;;;;;;2.48;100.00;100034.34;2072912;28;20220;-74
2021/10/28 01:16:23;;;;;;;134.85;73.72;;;;;;;2.47;100.00;100038.00;2079980;28;20219;-75
2021/10/28 01:17:31;;;;;;;117.13;66.47;;;;;;;2.45;100.00;100035.59;2079875;28;20261;-74
2021/10/28 01:18:35;;;;;;;127.88;68.75;;;;;;;2.44;100.00;100030.56;2081111;28;20223;-74
2021/10/28 01:19:36;;;;;;;114.68;64.35;;;;;;;2.44;100.00;100033.19;2081154;28;20219;-74
2021/10/28 01:20:46;;;;;;;125.50;69.30;;;;;;;2.43;100.00;100037.66;2080717;28;20227;-74
2021/10/28 01:21:52;;;;;;;113.10;64.25;;;;;;;2.41;100.00;100039.69;2080254;28;20220;-74
2021/10/28 01:23:01;;;;;;;120.35;65.68;;;;;;;2.41;100.00;100033.63;2080052;28;20228;-75
2021/10/28 01:24:04;;;;;;;122.15;66.40;;;;;;;2.38;100.00;100024.34;2080015;28;20226;-74
2021/10/28 01:25:10;;;;;;;117.68;64.35;;;;;;;2.39;100.00;100025.94;2079740;28;20234;-74
2021/10/28 01:26:15;;;;;;;118.47;64.68;;;;;;;2.40;100.00;100038.06;2079924;28;20298;-74
2021/10/28 01:27:16;;;;;;;119.97;64.45;;;;;;;2.37;100.00;100033.25;2080971;28;20235;-74
2021/10/28 01:28:22;;;;;;;113.57;63.90;;;;;;;2.36;100.00;100025.59;2080940;28;20225;-75
2021/10/28 01:29:28;;;;;;;118.10;65.45;;;;;;;2.33;100.00;100026.00;2080510;28;20662;-74
2021/10/28 01:30:32;;;;;;;117.90;63.50;;;;;;;2.32;100.00;100021.75;2079804;28;20234;-74
2021/10/28 01:31:42;;;;;;;120.18;64.85;;;;;;;2.32;100.00;100024.38;2071949;28;20223;-74
2021/10/28 01:32:47;;;;;;;125.97;63.75;;;;;;;2.32;100.00;100024.38;2079220;28;20219;-74
2021/10/28 01:33:52;;;;;;;115.88;62.80;;;;;;;2.38;100.00;100018.25;2076146;28;20219;-74
2021/10/28 01:34:55;;;;;;;111.50;61.55;;;;;;;2.42;100.00;100027.31;2079612;28;20322;-74
2021/10/28 01:36:01;;;;;;;112.88;61.78;;;;;;;2.44;100.00;100022.66;2080305;28;20254;-74
2021/10/28 01:37:04;;;;;;;113.45;63.33;;;;;;;2.43;100.00;100021.88;2080824;28;20276;-74
2021/10/28 01:38:11;;;;;;;115.03;61.97;;;;;;;2.47;100.00;100022.22;2080987;28;20661;-75
2021/10/28 01:39:21;;;;;;;112.35;62.90;;;;;;;2.45;100.00;100029.53;2080561;28;20231;-75
2021/10/28 01:40:26;;;;;;;115.50;65.35;;;;;;;2.45;100.00;100026.91;2079264;28;20261;-74
2021/10/28 01:41:29;;;;;;;117.78;62.78;;;;;;;2.47;100.00;100030.13;2072246;28;20235;-75
2021/10/28 01:42:37;;;;;;;104.95;61.13;;;;;;;2.44;100.00;100022.66;2080276;28;20666;-74
2021/10/28 01:43:41;;;;;;;116.97;64.85;;;;;;;2.47;100.00;100027.47;2079737;28;20588;-74
2021/10/28 01:44:46;;;;;;;115.90;64.35;;;;;;;2.46;100.00;100025.88;2080941;28;20227;-74
2021/10/28 01:45:47;;;;;;;116.00;65.57;;;;;;;2.45;100.00;100029.53;2080950;28;20223;-74
2021/10/28 01:46:53;;;;;;;115.40;64.55;;;;;;;2.42;100.00;100020.22;2080836;28;20215;-74
2021/10/28 01:47:57;;;;;;;116.70;66.43;;;;;;;2.43;100.00;100021.03;2078768;28;20235;-74
2021/10/28 01:49:00;;;;;;;114.22;62.35;;;;;;;2.40;100.00;100021.47;2080116;28;20231;-74
2021/10/28 01:50:02;;;;;;;106.05;62.13;;;;;;;2.37;100.00;100027.19;2080674;28;20297;-75
2021/10/28 01:51:09;;;;;;;115.22;64.63;;;;;;;2.34;100.00;100017.06;2079680;28;20575;-75
2021/10/28 01:52:13;;;;;;;112.45;61.58;;;;;;;2.33;100.00;100018.09;2079667;28;20688;-74
2021/10/28 01:53:17;;;;;;;108.78;60.35;;;;;;;2.31;100.00;100012.25;2079336;28;20231;-74
2021/10/28 01:54:22;;;;;;;109.40;62.78;;;;;;;2.29;100.00;100009.03;2080148;28;20215;-74
2021/10/28 01:55:25;;;;;;;114.43;61.30;;;;;;;2.27;100.00;100006.63;2080359;28;20227;-74
2021/10/28 01:56:27;;;;;;;112.03;62.75;;;;;;;2.28;100.00;100012.69;2080112;28;20318;-75
2021/10/28 01:57:33;;;;;;;108.25;60.03;;;;;;;2.28;100.00;100007.44;2080137;28;20306;-74
2021/10/28 01:58:49;;;;;;;103.40;57.90;;;;;;;2.24;100.00;100009.69;2080496;28;20245;-74
2021/10/28 01:59:56;;;;;;;102.55;58.63;;;;;;;2.24;100.00;100013.13;2080405;28;20634;-74
2021/10/28 02:01:02;;;;;;;101.85;58.17;;;;;;;2.25;100.00;100012.09;2079436;28;20223;-74
2021/10/28 02:02:06;;;;;;;107.95;58.72;;;;;;;2.24;100.00;100021.00;2080026;28;20227;-75
2021/10/28 02:03:08;;;;;;;94.82;55.65;;;;;;;2.25;100.00;100009.47;2080478;28;20223;-74
2021/10/28 02:04:16;;;;;;;100.28;58.38;;;;;;;2.24;100.00;100014.94;2080727;28;20712;-74
2021/10/28 02:05:25;;;;;;;107.05;56.25;;;;;;;2.24;100.00;100014.94;2080675;28;20678;-74
2021/10/28 02:06:33;;;;;;;101.35;57.85;;;;;;;2.21;100.00;100008.28;2080380;28;20670;-74
2021/10/28 02:07:46;;;;;;;97.97;56.28;;;;;;;2.18;100.00;100003.47;2080338;28;20227;-74
2021/10/28 02:08:47;;;;;;;96.55;54.05;;;;;;;2.19;100.00;100015.63;2081527;28;20740;-75
2021/10/28 02:09:51;;;;;;;93.43;56.58;;;;;;;2.16;100.00;100008.13;2088691;28;20306;-74
2021/10/28 02:10:55;;;;;;;98.68;58.30;;;;;;;2.15;100.00;100006.53;2088469;28;20609;-74
2021/10/28 02:12:04;;;;;;;107.07;59.05;;;;;;;2.12;100.00;100014.88;2088887;28;20708;-74
2021/10/28 02:13:07;;;;;;;96.60;54.70;;;;;;;2.09;100.00;100011.88;2088732;28;20556;-74
2021/10/28 02:14:14;;;;;;;100.22;58.22;;;;;;;2.08;100.00;100003.16;2079006;28;20234;-74
2021/10/28 02:15:21;;;;;;;99.85;56.70;;;;;;;2.07;100.00;100014.69;2080359;28;20223;-74
2021/10/28 02:16:28;;;;;;;95.97;55.42;;;;;;;2.05;100.00;100015.94;2078853;28;20227;-74
2021/10/28 02:17:29;;;;;;;103.03;57.97;;;;;;;2.04;100.00;100017.78;2080755;28;20290;-74
2021/10/28 02:18:31;;;;;;;101.33;58.03;;;;;;;2.02;100.00;100013.75;2079829;28;20220;-74
2021/10/28 02:19:34;;;;;;;101.95;56.60;;;;;;;2.00;100.00;100021.88;2079958;28;20223;-74
2021/10/28 02:20:43;;;;;;;93.70;55.33;;;;;;;1.97;100.00;100017.03;2079254;28;20686;-74
2021/10/28 02:21:55;;;;;;;96.18;53.35;;;;;;;1.97;100.00;100030.19;2080493;28;20281;-74
2021/10/28 02:23:00;;;;;;;96.75;54.90;;;;;;;1.95;100.00;100019.06;2078828;28;20231;-73
2021/10/28 02:24:01;;;;;;;92.70;54.15;;;;;;;1.91;100.00;100020.50;2080343;28;20567;-74
2021/10/28 02:25:04;;;;;;;100.55;55.08;;;;;;;1.91;100.00;100017.88;2079562;28;20227;-74
2021/10/28 02:26:07;;;;;;;103.55;56.35;;;;;;;1.90;100.00;100017.06;2080059;28;20219;-74
2021/10/28 02:27:14;;;;;;;102.22;55.60;;;;;;;1.89;100.00;100012.84;2088175;28;20231;-74
2021/10/28 02:28:19;;;;;;;102.65;58.88;;;;;;;1.90;100.00;100011.00;2088519;28;20620;-73
2021/10/28 02:29:28;;;;;;;112.20;58.55;;;;;;;1.90;100.00;100017.06;2078819;28;20247;-74
2021/10/28 02:30:32;;;;;;;101.43;58.85;;;;;;;1.94;100.00;100018.25;2080181;28;20227;-74
2021/10/28 02:31:43;;;;;;;103.63;57.03;;;;;;;1.91;100.00;100013.44;2088646;28;20559;-74
2021/10/28 02:32:45;;;;;;;98.07;57.53;;;;;;;1.92;100.00;100014.25;2088178;28;20231;-74
2021/10/28 02:33:51;;;;;;;97.00;54.70;;;;;;;1.87;100.00;100009.63;2088671;28;20235;-74
2021/10/28 02:34:58;;;;;;;91.43;52.28;;;;;;;1.90;100.00;100013.63;2079321;28;20235;-75
2021/10/28 02:36:04;;;;;;;94.13;52.33;;;;;;;1.85;100.00;100009.03;2071904;28;20220;-74
2021/10/28 02:37:11;;;;;;;98.68;53.60;;;;;;;1.83;100.00;100016.34;2080204;28;20310;-74
2021/10/28 02:38:14;;;;;;;92.05;53.38;;;;;;;1.79;100.00;100014.34;2088117;28;20245;-74
2021/10/28 02:39:16;;;;;;;88.97;53.30;;;;;;;1.76;100.00;100014.78;2079381;28;20633;-75
2021/10/28 02:40:18;;;;;;;97.32;55.33;;;;;;;1.75;100.00;100016.59;2079904;28;20647;-74
2021/10/28 02:41:23;;;;;;;98.32;54.70;;;;;;;1.74;100.00;100014.16;2088592;28;20680;-74
2021/10/28 02:42:32;;;;;;;94.55;54.05;;;;;;;1.74;100.00;100019.44;2078862;28;27018;-74
2021/10/28 02:43:39;;;;;;;92.13;53.58;;;;;;;1.69;100.00;100013.00;2080027;28;20223;-74
2021/10/28 02:44:46;;;;;;;86.78;52.50;;;;;;;1.69;100.00;100010.38;2078664;28;20318;-74
2021/10/28 02:45:51;;;;;;;93.60;51.97;;;;;;;1.67;100.00;100012.41;2080635;28;20227;-74
2021/10/28 02:46:54;;;;;;;93.60;53.10;;;;;;;1.66;100.00;100015.25;2088116;28;20226;-73
2021/10/28 02:48:01;;;;;;;89.25;51.22;;;;;;;1.62;100.00;100016.69;2088530;28;20242;-74
2021/10/28 02:49:05;;;;;;;90.22;51.17;;;;;;;1.62;100.00;100014.88;2088549;28;20669;-74
2021/10/28 02:50:13;;;;;;;92.57;52.53;;;;;;;1.61;100.00;100021.16;2087916;28;20231;-74
2021/10/28 02:51:16;;;;;;;95.78;55.67;;;;;;;1.59;100.00;100014.50;2088592;28;20234;-74
2021/10/28 02:52:25;;;;;;;101.90;55.05;;;;;;;1.59;100.00;100019.75;2079143;28;20226;-74
2021/10/28 02:53:27;;;;;;;92.45;52.00;;;;;;;1.58;100.00;100018.97;2080209;28;20235;-74
2021/10/28 02:54:34;;;;;;;86.07;53.03;;;;;;;1.57;100.00;100024.44;2088489;28;20243;-75
2021/10/28 02:55:41;;;;;;;94.53;52.38;;;;;;;1.57;100.00;100022.63;2088461;28;20265;-74
2021/10/28 02:56:49;;;;;;;93.82;53.65;;;;;;;1.56;100.00;100026.22;2088056;28;20233;-75
2021/10/28 02:57:56;;;;;;;88.53;52.03;;;;;;;1.55;100.00;100029.09;2088406;28;20676;-73
2021/10/28 02:59:02;;;;;;;94.63;52.70;;;;;;;1.53;100.00;100024.03;2079050;28;20227;-75
2021/10/28 03:00:07;;;;;;;87.07;50.88;;;;;;;1.53;100.00;100031.94;2071251;28;20239;-74
2021/10/28 03:01:10;;;;;;;85.45;49.78;;;;;;;1.51;100.00;100026.09;2079780;28;20289;-74
2021/10/28 03:02:13;;;;;;;77.72;49.08;;;;;;;1.51;100.00;100023.44;2079054;28;20231;-75
2021/10/28 03:03:19;;;;;;;85.50;50.00;;;;;;;1.51;100.00;100035.81;2070862;28;20224;-74
2021/10/28 03:04:24;;;;;;;87.35;51.58;;;;;;;1.48;100.00;100023.06;2080411;28;20223;-74
2021/10/28 03:05:28;;;;;;;81.20;48.78;;;;;;;1.48;100.00;100025.69;2088030;28;20239;-74
2021/10/28 03:06:37;;;;;;;82.22;47.55;;;;;;;1.50;100.00;100037.63;2088389;28;20215;-75
2021/10/28 03:07:44;;;;;;;81.57;49.85;;;;;;;1.49;100.00;100028.13;2087830;28;20249;-74
2021/10/28 03:08:49;;;;;;;87.70;49.78;;;;;;;1.49;100.00;100030.75;2088306;28;20236;-74
2021/10/28 03:10:00;;;;;;;85.10;50.55;;;;;;;1.46;100.00;100018.00;2068536;28;20231;-74
2021/10/28 03:11:06;;;;;;;96.65;50.97;;;;;;;1.47;100.00;100022.25;2071944;28;20560;-75
2021/10/28 03:12:13;;;;;;;85.03;49.95;;;;;;;1.45;100.00;100026.94;2080146;28;20223;-74
2021/10/28 03:13:18;;;;;;;84.90;50.15;;;;;;;1.45;100.00;100028.75;2079123;28;20277;-75
2021/10/28 03:14:28;;;;;;;87.03;49.75;;;;;;;1.41;100.00;100026.56;2080188;28;20583;-75
2021/10/28 03:15:35;;;;;;;85.03;48.83;;;;;;;1.43;100.00;100036.84;2087929;28;20675;-75
2021/10/28 03:16:49;;;;;;;89.53;49.92;;;;;;;1.41;100.00;100031.00;2079126;28;20614;-75
2021/10/28 03:18:18;;;;;;;84.32;48.72;;;;;;;1.41;100.00;100028.38;2081253;28;20225;-75
2021/10/28 03:19:32;;;;;;;102.35;53.78;;;;;;;1.38;100.00;100024.31;2078516;28;20223;-75
2021/10/28 03:26:01;;;;;;;89.25;49.03;;;;;;;1.44;100.00;100032.41;2087949;28;20222;-75
2021/10/28 03:27:05;;;;;;;91.63;53.08;;;;;;;1.41;100.00;100034.44;2088271;28;20223;-75
2021/10/28 03:28:14;;;;;;;95.82;53.85;;;;;;;1.40;100.00;100035.47;2088310;28;20265;-75
2021/10/28 03:29:16;;;;;;;107.63;56.67;;;;;;;1.38;100.00;100032.22;2087957;28;20222;-75
2021/10/28 03:30:23;;;;;;;97.28;57.15;;;;;;;1.38;100.00;100029.59;2088294;28;20280;-75
2021/10/28 03:31:28;;;;;;;92.78;53.45;;;;;;;1.37;100.00;100035.06;2078633;28;20227;-75
2021/10/28 03:32:35;;;;;;;89.93;53.22;;;;;;;1.37;100.00;100042.94;2080226;28;20758;-75
2021/10/28 03:33:40;;;;;;;97.35;53.85;;;;;;;1.34;100.00;100038.13;2079027;28;20254;-75
2021/10/28 03:34:50;;;;;;;95.20;52.83;;;;;;;1.34;100.00;100036.31;2079957;28;20230;-75
2021/10/28 03:35:54;;;;;;;91.57;52.47;;;;;;;1.34;100.00;100046.00;2088332;28;20248;-75
2021/10/28 03:37:02;;;;;;;89.15;51.05;;;;;;;1.34;100.00;100046.81;2078266;28;20689;-75
2021/10/28 03:38:11;;;;;;;91.20;51.40;;;;;;;1.34;100.00;100048.66;2078836;28;20302;-75
2021/10/28 03:39:36;;;;;;;93.28;51.90;;;;;;;1.32;100.00;100045.44;2071005;28;20315;-76
2021/10/28 03:41:11;;;;;;;107.60;57.95;;;;;;;1.31;100.00;100052.50;2082602;28;20313;-74
2021/10/28 03:43:03;;;;;;;86.43;50.72;;;;;;;1.28;100.00;100047.66;2087645;28;20324;-75
2021/10/28 04:18:50;;;;;;;96.97;52.80;;;;;;;1.40;100.00;100068.84;2049902;28;20320;-75
2021/10/28 04:21:26;;;;;;;108.28;57.67;;;;;;;1.29;100.00;100062.41;2049496;28;20248;-74
2021/10/28 04:29:28;;;;;;;98.60;56.30;;;;;;;1.16;100.00;100070.38;2080954;28;20227;-74
2021/10/28 04:30:32;;;;;;;112.63;62.63;;;;;;;1.13;100.00;100062.91;2080346;28;20227;-75
2021/10/28 04:31:39;;;;;;;117.28;61.70;;;;;;;1.13;100.00;100068.97;2080477;28;20223;-75
2021/10/28 04:32:45;;;;;;;118.60;62.42;;;;;;;1.12;100.00;100069.16;2079903;28;20223;-74
2021/10/28 04:33:50;;;;;;;92.65;57.13;;;;;;;1.10;100.00;100068.56;2080708;28;20298;-75
2021/10/28 04:34:53;;;;;;;107.30;57.70;;;;;;;1.09;100.00;100062.50;2079509;28;20273;-74
2021/10/28 04:35:58;;;;;;;99.07;57.45;;;;;;;1.07;100.00;100077.69;2080775;28;20235;-75
2021/10/28 04:37:02;;;;;;;110.57;61.05;;;;;;;1.01;100.00;100065.38;2081265;28;20674;-75
2021/10/28 04:38:06;;;;;;;112.88;59.65;;;;;;;1.04;100.00;100067.59;2081389;28;20550;-75
2021/10/28 04:39:13;;;;;;;110.43;60.08;;;;;;;1.04;100.00;100066.75;2072624;28;20647;-74
2021/10/28 04:40:15;;;;;;;105.07;58.28;;;;;;;1.02;100.00;100060.91;2073135;28;20608;-75
2021/10/28 04:41:17;;;;;;;98.60;56.35;;;;;;;1.04;100.00;100072.03;2071943;28;20262;-75
2021/10/28 04:42:22;;;;;;;98.32;55.95;;;;;;;1.02;100.00;100068.81;2072500;28;20227;-75
2021/10/28 04:43:29;;;;;;;97.30;54.55;;;;;;;1.00;100.00;100068.22;2080141;28;20296;-74
2021/10/28 04:44:32;;;;;;;107.72;58.20;;;;;;;0.97;100.00;100063.38;2080533;28;20227;-74
2021/10/28 04:45:42;;;;;;;110.38;58.78;;;;;;;0.98;100.00;100065.81;2081353;28;20223;-75
2021/10/28 04:46:47;;;;;;;104.45;56.88;;;;;;;1.01;100.00;100064.56;2079324;28;20223;-75
2021/10/28 04:47:52;;;;;;;104.60;58.70;;;;;;;0.97;100.00;100066.81;2079229;28;20230;-75
2021/10/28 04:48:54;;;;;;;90.78;53.80;;;;;;;0.99;100.00;100070.03;2080402;28;20320;-75
2021/10/28 04:50:01;;;;;;;96.55;54.72;;;;;;;0.97;100.00;100073.91;2080240;28;20720;-75
2021/10/28 04:51:06;;;;;;;94.20;53.97;;;;;;;0.95;100.00;100066.19;2080588;28;20584;-75
2021/10/28 04:52:10;;;;;;;100.15;56.53;;;;;;;0.94;100.00;100069.84;2079661;28;20224;-74
2021/10/28 04:53:18;;;;;;;97.70;55.65;;;;;;;0.94;100.00;100069.84;2072418;28;20232;-75
2021/10/28 04:54:23;;;;;;;105.28;56.08;;;;;;;0.93;100.00;100073.50;2064736;28;20264;-75
2021/10/28 04:55:27;;;;;;;98.20;55.10;;;;;;;0.93;100.00;100073.50;2071785;28;20315;-75
2021/10/28 04:56:28;;;;;;;99.15;57.65;;;;;;;0.94;100.00;100074.28;2080606;28;20226;-75
2021/10/28 04:57:35;;;;;;;99.57;57.13;;;;;;;0.91;100.00;100070.28;2081305;28;20717;-74
2021/10/28 04:58:45;;;;;;;110.15;58.90;;;;;;;0.90;100.00;100071.28;2080799;28;20231;-74
2021/10/28 04:59:50;;;;;;;108.35;57.47;;;;;;;0.92;100.00;100068.44;2081188;28;20223;-75
2021/10/28 05:00:59;;;;;;;98.97;55.15;;;;;;;0.92;100.00;100071.88;2079484;28;20314;-75
2021/10/28 05:02:01;;;;;;;102.22;58.95;;;;;;;0.94;100.00;100072.47;2072456;28;20698;-75
2021/10/28 05:03:03;;;;;;;111.07;60.08;;;;;;;0.94;100.00;100075.09;2071719;28;20230;-75
2021/10/28 05:04:04;;;;;;;96.97;55.13;;;;;;;0.94;100.00;100069.84;2080461;28;20277;-76
2021/10/28 05:05:09;;;;;;;99.18;55.95;;;;;;;0.94;100.00;100075.09;2081319;28;20219;-75
2021/10/28 05:06:14;;;;;;;104.80;57.60;;;;;;;0.92;100.00;100079.75;2079787;28;20747;-75
2021/10/28 05:07:20;;;;;;;106.80;62.22;;;;;;;0.92;100.00;100071.88;2080355;28;20674;-75
2021/10/28 05:08:26;;;;;;;107.68;61.22;;;;;;;0.93;100.00;100072.69;2078871;28;20234;-74
2021/10/28 05:09:32;;;;;;;110.05;64.65;;;;;;;0.95;100.00;100075.91;2079978;28;20231;-75
2021/10/28 05:10:34;;;;;;;113.05;66.18;;;;;;;0.93;100.00;100078.75;2081140;28;20280;-75
2021/10/28 05:11:37;;;;;;;106.18;59.90;;;;;;;0.97;100.00;100079.16;2080290;28;20226;-75
2021/10/28 05:12:47;;;;;;;98.68;57.35;;;;;;;0.95;100.00;100087.22;2071957;28;20247;-74
2021/10/28 05:13:52;;;;;;;100.32;55.75;;;;;;;0.94;100.00;100082.97;2080536;28;20311;-75
2021/10/28 05:15:01;;;;;;;101.93;56.55;;;;;;;0.89;100.00;100082.81;2079412;28;20277;-75
2021/10/28 05:16:05;;;;;;;106.60;60.50;;;;;;;0.88;100.00;100089.09;2080406;28;20227;-75
2021/10/28 05:17:07;;;;;;;109.90;57.72;;;;;;;0.87;100.00;100073.50;2079452;28;20705;-75
2021/10/28 05:18:10;;;;;;;107.80;58.95;;;;;;;0.85;100.00;100082.41;2080097;28;20719;-74
2021/10/28 05:19:19;;;;;;;106.28;59.83;;;;;;;0.83;100.00;100076.56;2081031;28;20231;-75
2021/10/28 05:20:23;;;;;;;107.15;58.70;;;;;;;0.82;100.00;100085.44;2081010;28;20230;-75
2021/10/28 05:21:32;;;;;;;119.40;66.18;;;;;;;0.85;100.00;100082.41;2080643;28;20595;-74
2021/10/28 05:22:37;;;;;;;119.00;66.82;;;;;;;0.87;100.00;100084.00;2081008;28;20230;-75
2021/10/28 05:23:47;;;;;;;123.10;66.65;;;;;;;0.88;100.00;100081.19;2080669;28;20677;-74
2021/10/28 05:24:49;;;;;;;115.25;65.93;;;;;;;0.90;100.00;100076.53;2081164;28;20368;-75
2021/10/28 05:25:53;;;;;;;112.43;63.43;;;;;;;0.92;100.00;100076.31;2079861;28;20215;-75
2021/10/28 05:26:59;;;;;;;127.10;69.78;;;;;;;0.90;100.00;100081.78;2071839;28;20346;-75
2021/10/28 05:28:05;;;;;;;112.03;64.22;;;;;;;0.90;100.00;100083.63;2080348;28;20622;-75
2021/10/28 05:29:07;;;;;;;105.38;59.60;;;;;;;0.86;100.00;100075.31;2081050;28;20224;-75
2021/10/28 05:30:12;;;;;;;113.05;64.35;;;;;;;0.85;100.00;100079.78;2080620;28;20230;-75
2021/10/28 05:31:21;;;;;;;118.10;65.15;;;;;;;0.81;100.00;100070.72;2080973;28;20235;-74
2021/10/28 05:32:23;;;;;;;106.35;61.50;;;;;;;0.81;100.00;100078.59;2079618;28;20224;-74
2021/10/28 05:33:31;;;;;;;119.35;67.38;;;;;;;0.81;100.00;100078.59;2071913;28;20297;-75
2021/10/28 05:34:39;;;;;;;119.55;66.05;;;;;;;0.81;100.00;100080.41;2080006;28;20227;-75
2021/10/28 05:35:46;;;;;;;113.90;66.00;;;;;;;0.82;100.00;100077.56;2072166;28;20232;-74
2021/10/28 05:36:53;;;;;;;120.57;68.05;;;;;;;0.83;100.00;100073.13;2072177;28;20236;-75
2021/10/28 05:38:01;;;;;;;127.10;69.55;;;;;;;0.85;100.00;100081.59;2071230;28;20260;-74
2021/10/28 05:39:02;;;;;;;116.78;68.32;;;;;;;0.85;100.00;100076.34;2072095;28;20355;-74
2021/10/28 05:40:05;;;;;;;116.80;64.70;;;;;;;0.87;100.00;100084.84;2080355;28;20246;-75
2021/10/28 05:41:10;;;;;;;115.55;68.55;;;;;;;0.85;100.00;100077.16;2079625;28;20218;-75
2021/10/28 05:42:16;;;;;;;132.30;70.45;;;;;;;0.88;100.00;100078.56;2079801;28;20274;-75
2021/10/28 05:43:22;;;;;;;132.48;72.30;;;;;;;0.93;100.00;100077.94;2080779;28;20581;-75
2021/10/28 05:44:28;;;;;;;136.65;75.35;;;;;;;0.97;100.00;100079.97;2079656;28;20286;-74
2021/10/28 05:45:32;;;;;;;127.88;70.97;;;;;;;0.97;100.00;100077.31;2071360;28;20247;-74
2021/10/28 05:46:38;;;;;;;136.35;75.35;;;;;;;0.99;100.00;100085.81;2071817;28;20224;-75
2021/10/28 05:47:42;;;;;;;157.88;78.15;;;;;;;1.02;100.00;100082.75;2070407;28;20237;-75
2021/10/28 05:48:47;;;;;;;148.05;78.90;;;;;;;1.04;100.00;100079.91;2079776;28;20239;-75
2021/10/28 05:49:54;;;;;;;149.43;78.82;;;;;;;1.05;100.00;100084.19;2079458;28;20246;-74
2021/10/28 05:51:01;;;;;;;145.93;76.78;;;;;;;1.05;100.00;100090.22;2071972;28;20235;-75
2021/10/28 05:52:06;;;;;;;144.77;75.03;;;;;;;1.05;100.00;100086.81;2071642;28;20801;-75
2021/10/28 05:53:08;;;;;;;137.18;73.82;;;;;;;1.04;100.00;100085.16;2079642;28;20660;-73
2021/10/28 05:54:10;;;;;;;145.85;76.07;;;;;;;1.06;100.00;100094.47;2080693;28;20230;-74
2021/10/28 05:55:15;;;;;;;150.35;78.65;;;;;;;1.08;100.00;100089.81;2078820;28;20238;-74
2021/10/28 05:56:23;;;;;;;158.57;78.60;;;;;;;1.10;100.00;100089.59;2071844;28;20307;-74
2021/10/28 05:57:27;;;;;;;155.70;76.82;;;;;;;1.11;100.00;100094.63;2072062;28;20224;-74